Time;durP1;ratioP1;P1;durP2;ratioP2;P2;SDS_P1;SDS_P2;PMS_P1;PMS_P2;Temp;Humidity;BMP_temperature;BMP_pressure;BME280_temperature;BME280_humidity;BME280_pressure;Samples;Min_cycle;Max_cycle;Signal;HPM_P1;HPM_P2
2022/01/06 00:00:59;;;;;;;;;19.75;14.75;;;;;6.74;59.33;101530.66;5004765;27;45508;-72
2022/01/06 00:03:26;;;;;;;;;19.00;16.50;;;;;6.64;59.67;101515.59;5017384;27;45761;-73
2022/01/06 00:05:55;;;;;;;;;16.50;15.00;;;;;6.69;59.73;101529.63;5010350;27;45349;-73
2022/01/06 00:08:21;;;;;;;;;26.50;19.75;;;;;6.58;58.69;101506.75;5016580;27;45569;-72
2022/01/06 00:10:48;;;;;;;;;17.50;15.75;;;;;6.49;59.41;101516.00;5036099;27;45283;-72
2022/01/06 00:13:19;;;;;;;;;16.00;14.75;;;;;6.60;60.50;101522.44;5017071;27;45380;-71
2022/01/06 00:16:13;;;;;;;;;21.00;17.75;;;;;6.62;59.36;101509.44;4990983;27;45252;-68
2022/01/06 00:23:49;;;;;;;;;19.75;18.00;;;;;6.80;59.40;101529.09;5094202;27;45419;-68
2022/01/06 00:26:14;;;;;;;;;17.25;15.50;;;;;6.69;59.39;101494.09;5010444;27;45764;-69
2022/01/06 00:28:40;;;;;;;;;19.75;15.00;;;;;6.82;59.54;101513.53;5021435;27;46093;-69
2022/01/06 00:31:06;;;;;;;;;17.50;16.50;;;;;6.86;59.58;101523.22;5088598;27;45551;-70
2022/01/06 00:33:33;;;;;;;;;18.50;17.00;;;;;6.79;59.09;101511.72;5095542;27;45417;-69
2022/01/06 00:35:59;;;;;;;;;19.75;17.75;;;;;6.86;58.88;101524.91;5039307;27;45616;-70
2022/01/06 00:38:26;;;;;;;;;15.25;15.25;;;;;6.86;59.11;101530.13;5054193;27;45366;-73
2022/01/06 00:40:53;;;;;;;;;21.25;16.50;;;;;6.89;58.96;101535.44;5094638;27;45785;-70
2022/01/06 00:43:19;;;;;;;;;18.50;15.00;;;;;6.93;58.35;101534.72;5055864;27;45371;-69
2022/01/06 00:45:45;;;;;;;;;15.00;15.00;;;;;6.70;58.52;101505.38;5056476;27;45416;-68
2022/01/06 00:48:11;;;;;;;;;17.00;15.75;;;;;6.88;58.79;101525.84;5004934;27;46077;-69
2022/01/06 00:50:39;;;;;;;;;21.50;19.50;;;;;6.91;58.51;101531.16;4984565;27;45532;-69
2022/01/06 00:53:05;;;;;;;;;18.00;16.25;;;;;6.78;58.56;101520.38;5011609;27;45512;-69
2022/01/06 00:55:35;;;;;;;;;17.75;15.25;;;;;6.92;58.55;101541.63;4973400;28;45579;-70
2022/01/06 00:58:02;;;;;;;;;20.50;16.25;;;;;6.71;58.44;101510.59;5032812;27;45812;-72
2022/01/06 01:00:37;;;;;;;;;16.00;14.50;;;;;6.94;59.42;101549.47;5068335;27;45413;-71
2022/01/06 01:03:05;;;;;;;;;15.00;14.50;;;;;6.97;58.95;101557.38;5003276;27;45353;-69
2022/01/06 01:05:31;;;;;;;;;23.00;18.00;;;;;6.95;59.16;101553.84;5017106;27;45296;-69
2022/01/06 01:07:56;;;;;;;;;9.00;7.50;;;;;6.88;58.48;101554.50;5011024;27;45410;-70
2022/01/06 01:10:22;;;;;;;;;19.00;16.75;;;;;6.74;58.64;101544.56;5063342;27;45481;-69
2022/01/06 01:12:49;;;;;;;;;18.75;16.50;;;;;6.76;59.46;101552.41;5031479;27;45322;-70
2022/01/06 01:15:21;;;;;;;;;14.50;14.50;;;;;6.76;58.92;101542.91;4990293;27;45642;-69
2022/01/06 01:17:51;;;;;;;;;17.25;16.00;;;;;6.72;59.57;101548.84;5004056;27;45974;-68
2022/01/06 01:20:19;;;;;;;;;19.25;17.50;;;;;6.64;60.14;101552.03;4988535;27;45701;-70
2022/01/06 01:22:46;;;;;;;;;18.25;17.50;;;;;6.57;60.22;101550.94;4971677;27;46003;-68
2022/01/06 01:25:12;;;;;;;;;16.75;15.00;;;;;6.43;59.45;101531.41;4986848;28;45539;-70
2022/01/06 01:27:41;;;;;;;;;21.25;16.25;;;;;6.54;60.16;101545.66;4990120;27;45876;-69
2022/01/06 01:30:12;;;;;;;;;13.75;13.75;;;;;6.56;59.97;101552.66;4988339;27;45476;-69
2022/01/06 01:32:39;;;;;;;;;23.50;15.75;;;;;6.40;60.59;101526.13;4992856;27;45463;-69
2022/01/06 01:35:09;;;;;;;;;19.75;15.75;;;;;6.54;59.68;101546.53;5045557;27;45538;-69
2022/01/06 01:37:36;;;;;;;;;20.75;17.50;;;;;6.50;59.72;101543.78;4990416;27;45299;-72
2022/01/06 01:40:04;;;;;;;;;24.50;21.75;;;;;6.42;59.75;101563.50;5078449;27;45476;-70
2022/01/06 01:42:30;;;;;;;;;21.25;18.00;;;;;6.31;59.76;101566.63;5029084;27;45912;-70
2022/01/06 01:44:56;;;;;;;;;18.50;17.00;;;;;6.25;60.42;101562.94;5046604;27;46403;-72
2022/01/06 01:47:40;;;;;;;;;28.75;19.50;;;;;6.19;60.85;101553.19;5059070;27;46061;-69
2022/01/06 01:52:43;;;;;;;;;20.50;16.75;;;;;6.24;60.20;101572.47;4992558;27;45554;-69
2022/01/06 01:55:09;;;;;;;;;27.25;17.75;;;;;6.18;60.61;101560.97;4986433;27;45564;-70
2022/01/06 01:57:35;;;;;;;;;24.25;18.00;;;;;5.88;60.57;101518.34;5027102;27;46507;-70
2022/01/06 02:00:07;;;;;;;;;17.25;15.50;;;;;6.01;61.38;101570.81;5035141;27;45433;-69
2022/01/06 02:02:33;;;;;;;;;17.25;16.00;;;;;6.06;60.95;101580.53;5013119;27;45464;-69
2022/01/06 02:04:59;;;;;;;;;16.25;15.00;;;;;6.01;61.35;101566.50;4992440;27;46118;-72
2022/01/06 02:07:25;;;;;;;;;20.00;17.00;;;;;6.19;61.41;101584.41;4985414;27;46080;-71
2022/01/06 02:09:51;;;;;;;;;20.50;16.75;;;;;6.20;60.68;101578.41;4984224;28;45368;-71
2022/01/06 02:12:27;;;;;;;;;17.00;16.50;;;;;6.14;60.69;101563.44;4984168;28;45531;-70
2022/01/06 02:14:53;;;;;;;;;21.50;18.00;;;;;6.31;60.14;101587.44;4987299;27;45576;-69
2022/01/06 02:17:19;;;;;;;;;17.25;15.00;;;;;6.22;59.71;101574.13;4989190;27;46660;-71
2022/01/06 02:19:53;;;;;;;;;19.00;16.75;;;;;6.37;59.81;101582.44;4989642;27;45732;-73
2022/01/06 02:22:18;;;;;;;;;20.75;19.00;;;;;6.37;60.78;101578.94;4987387;27;45395;-70
2022/01/06 02:24:44;;;;;;;;;19.00;14.75;;;;;6.21;59.49;101554.13;4988665;27;45780;-70
2022/01/06 02:27:09;;;;;;;;;23.75;16.00;;;;;6.33;59.73;101580.56;4987716;27;46158;-70
2022/01/06 02:29:35;;;;;;;;;19.75;19.00;;;;;6.16;60.74;101589.53;4972034;28;45426;-69
2022/01/06 02:32:07;;;;;;;;;18.75;17.00;;;;;6.09;61.16;101592.75;4987799;28;45496;-71
2022/01/06 02:34:32;;;;;;;;;19.50;17.25;;;;;6.07;61.33;101592.69;4988722;27;45993;-70
2022/01/06 02:36:58;;;;;;;;;18.00;15.75;;;;;5.92;61.37;101577.41;4984893;27;46544;-71
2022/01/06 02:39:24;;;;;;;;;16.25;15.50;;;;;6.04;61.61;101586.50;5015055;27;46333;-70
2022/01/06 02:41:50;;;;;;;;;20.00;16.00;;;;;5.94;62.15;101556.72;4987085;27;45522;-70
2022/01/06 02:44:24;;;;;;;;;22.50;16.75;;;;;6.14;61.29;101583.38;4986276;27;45809;-69
2022/01/06 02:46:51;;;;;;;;;20.00;16.00;;;;;6.20;61.31;101594.00;4984190;27;46358;-72
2022/01/06 02:49:17;;;;;;;;;19.50;15.25;;;;;6.23;60.58;101590.63;4988910;28;45571;-70
2022/01/06 02:51:42;;;;;;;;;22.75;17.50;;;;;6.03;61.53;101575.22;4980655;27;45702;-74
2022/01/06 02:54:08;;;;;;;;;18.75;16.00;;;;;5.97;61.41;101553.34;4970703;28;45891;-71
2022/01/06 02:56:34;;;;;;;;;21.50;15.50;;;;;5.96;61.17;101560.25;4974986;28;45532;-70
2022/01/06 02:59:00;;;;;;;;;22.75;17.25;;;;;6.10;61.72;101595.41;4975635;28;45375;-70
2022/01/06 03:01:25;;;;;;;;;17.00;16.00;;;;;6.09;61.43;101578.03;4974692;28;45515;-69
2022/01/06 03:03:51;;;;;;;;;18.25;17.75;;;;;6.05;60.71;101591.78;4993594;28;45445;-72
2022/01/06 03:06:16;;;;;;;;;16.50;13.00;;;;;6.02;61.16;101595.97;4980942;28;45485;-72
2022/01/06 03:08:42;;;;;;;;;21.25;16.75;;;;;6.12;60.98;101609.38;4988476;27;45442;-70
2022/01/06 03:11:08;;;;;;;;;16.25;15.00;;;;;6.15;61.18;101616.38;4991052;27;45611;-71
2022/01/06 03:13:33;;;;;;;;;21.25;17.00;;;;;6.07;61.14;101602.22;4987319;27;45527;-70
2022/01/06 03:16:01;;;;;;;;;20.50;16.25;;;;;6.12;61.56;101606.75;4974657;28;46261;-68
2022/01/06 03:18:27;;;;;;;;;18.75;17.00;;;;;6.14;61.38;101612.88;4988570;27;45300;-75
2022/01/06 03:20:53;;;;;;;;;14.00;11.75;;;;;5.98;61.13;101591.50;4985441;27;45451;-72
2022/01/06 03:23:18;;;;;;;;;18.75;17.25;;;;;6.14;60.28;101625.00;4994270;27;45557;-72
2022/01/06 03:25:44;;;;;;;;;19.00;16.50;;;;;6.12;62.29;101629.25;4997314;28;46080;-75
2022/01/06 03:28:10;;;;;;;;;17.50;16.00;;;;;6.04;60.75;101615.13;4996786;28;45341;-69
2022/01/06 03:30:37;;;;;;;;;18.50;17.50;;;;;6.01;60.97;101609.81;4997732;27;45349;-70
2022/01/06 03:33:03;;;;;;;;;16.00;13.50;;;;;6.18;61.34;101629.47;4994222;27;45395;-70
2022/01/06 03:35:28;;;;;;;;;18.75;15.25;;;;;6.28;60.71;101630.69;4977816;28;45374;-71
2022/01/06 03:37:54;;;;;;;;;16.00;14.00;;;;;6.19;60.47;101596.53;4990781;28;45504;-70
2022/01/06 03:40:20;;;;;;;;;18.25;16.00;;;;;6.33;60.08;101623.91;4991302;27;45445;-71
2022/01/06 03:42:47;;;;;;;;;15.50;13.75;;;;;6.40;60.71;101625.00;4975684;28;45532;-69
2022/01/06 03:45:17;;;;;;;;;21.50;15.25;;;;;6.41;60.53;101632.88;4990233;27;45626;-69
2022/01/06 03:47:44;;;;;;;;;15.50;14.50;;;;;6.30;59.79;101605.59;4992703;27;45595;-71
2022/01/06 03:50:12;;;;;;;;;17.25;15.00;;;;;6.41;60.17;101618.94;4980687;28;45528;-70
2022/01/06 03:52:38;;;;;;;;;20.50;15.00;;;;;6.48;59.96;101628.75;4978587;27;45524;-70
2022/01/06 03:55:06;;;;;;;;;18.75;16.25;;;;;6.40;60.45;101619.78;4976371;28;45501;-71
2022/01/06 03:57:32;;;;;;;;;15.25;13.25;;;;;6.38;60.09;101619.72;4976732;28;45377;-71
2022/01/06 03:59:58;;;;;;;;;18.50;16.50;;;;;6.12;60.28;101598.03;4991189;27;45371;-71
2022/01/06 04:02:23;;;;;;;;;15.00;15.00;;;;;6.35;60.11;101635.25;4975289;28;45361;-71
2022/01/06 04:04:49;;;;;;;;;16.50;16.50;;;;;6.33;60.72;101629.97;4978113;28;46185;-71
2022/01/06 04:07:14;;;;;;;;;17.25;16.75;;;;;6.35;59.47;101627.44;4984542;28;45494;-70
2022/01/06 04:09:40;;;;;;;;;17.50;15.00;;;;;6.33;60.68;101635.19;4977646;28;45563;-70
2022/01/06 04:12:09;;;;;;;;;18.75;17.75;;;;;6.32;61.18;101633.44;4978258;28;45820;-70
2022/01/06 04:14:35;;;;;;;;;16.00;15.25;;;;;6.25;60.09;101631.47;4986295;28;45563;-70
2022/01/06 04:17:01;;;;;;;;;19.00;16.00;;;;;6.05;61.28;101630.78;4972103;28;45479;-70
2022/01/06 04:19:26;;;;;;;;;19.00;17.25;;;;;5.93;60.33;101596.50;4975684;28;45447;-72
2022/01/06 04:21:53;;;;;;;;;16.75;14.25;;;;;6.17;60.07;101643.34;4971055;28;45463;-70
2022/01/06 04:24:20;;;;;;;;;18.75;15.00;;;;;6.19;60.94;101633.84;4973985;28;47708;-70
2022/01/06 04:26:45;;;;;;;;;19.25;16.00;;;;;6.25;60.27;101630.59;4994818;27;45473;-70
2022/01/06 04:29:11;;;;;;;;;16.00;14.00;;;;;6.09;61.79;101604.03;4991536;27;45461;-71
2022/01/06 04:31:38;;;;;;;;;16.00;15.25;;;;;6.19;60.83;101623.44;4991806;27;45755;-71
2022/01/06 04:34:04;;;;;;;;;14.00;14.00;;;;;6.16;60.71;101625.94;4991099;27;46634;-71
2022/01/06 04:36:29;;;;;;;;;17.75;16.75;;;;;6.26;60.62;101633.22;4994330;27;45417;-69
2022/01/06 04:38:55;;;;;;;;;21.00;15.25;;;;;6.34;60.71;101636.97;4979386;28;45441;-71
2022/01/06 04:41:20;;;;;;;;;14.00;13.50;;;;;6.32;60.05;101630.84;4992104;27;45390;-70
2022/01/06 04:43:46;;;;;;;;;15.25;14.00;;;;;6.42;59.50;101641.56;4980312;27;45771;-69
2022/01/06 04:46:11;;;;;;;;;19.00;15.25;;;;;6.37;60.91;101631.88;4972202;28;45291;-70
2022/01/06 04:48:37;;;;;;;;;17.50;14.75;;;;;6.28;60.23;101613.34;4972082;28;45466;-73
2022/01/06 04:51:04;;;;;;;;;17.50;13.50;;;;;6.24;60.18;101611.50;4976956;28;45913;-70
2022/01/06 04:53:30;;;;;;;;;15.50;13.50;;;;;6.34;59.66;101629.16;4992043;27;45503;-70
2022/01/06 04:55:58;;;;;;;;;15.50;13.00;;;;;6.35;60.99;101636.13;4992063;27;45404;-70
2022/01/06 04:58:23;;;;;;;;;14.50;12.50;;;;;6.30;60.31;101642.91;4995414;27;45430;-70
2022/01/06 05:00:49;;;;;;;;;18.75;15.75;;;;;6.21;59.97;101633.91;4992248;27;45301;-68
2022/01/06 05:03:14;;;;;;;;;12.50;9.25;;;;;6.18;60.41;101639.88;4991469;27;45841;-69
2022/01/06 05:05:40;;;;;;;;;16.00;13.00;;;;;6.22;61.29;101649.56;4991437;27;45749;-69
2022/01/06 05:08:05;;;;;;;;;16.50;13.75;;;;;6.24;60.95;101655.72;4991600;28;45346;-70
2022/01/06 05:10:31;;;;;;;;;12.00;12.00;;;;;6.26;60.66;101654.03;4992180;28;45450;-68
2022/01/06 05:12:56;;;;;;;;;16.00;13.50;;;;;6.25;60.67;101665.28;4994686;28;45766;-69
2022/01/06 05:15:22;;;;;;;;;14.75;13.25;;;;;6.15;60.58;101632.00;4994938;28;45460;-69
2022/01/06 05:17:47;;;;;;;;;20.25;15.25;;;;;6.29;60.77;101661.97;4991301;27;45429;-70
2022/01/06 05:20:13;;;;;;;;;13.25;11.50;;;;;6.28;60.21;101667.97;4992091;27;45401;-72
2022/01/06 05:22:44;;;;;;;;;16.25;15.00;;;;;6.18;60.30;101665.03;4991272;27;45762;-68
2022/01/06 05:25:11;;;;;;;;;17.00;13.25;;;;;6.14;60.28;101664.00;4991562;27;45866;-69
2022/01/06 05:27:36;;;;;;;;;16.25;13.75;;;;;6.13;62.29;101654.47;4990521;27;45502;-71
2022/01/06 05:30:02;;;;;;;;;18.75;16.25;;;;;6.14;61.27;101664.91;4992758;27;45439;-72
2022/01/06 05:32:28;;;;;;;;;15.00;13.25;;;;;6.09;61.39;101661.25;4991454;27;45934;-72
2022/01/06 05:34:53;;;;;;;;;17.25;15.00;;;;;6.07;60.94;101668.13;4991385;27;45374;-74
2022/01/06 05:37:22;;;;;;;;;18.50;16.25;;;;;6.06;60.50;101657.69;4990256;27;45359;-73
2022/01/06 05:39:47;;;;;;;;;15.00;13.00;;;;;5.81;60.40;101622.94;4991658;28;45736;-73
2022/01/06 05:42:13;;;;;;;;;17.25;14.25;;;;;6.08;61.67;101677.69;4990976;27;45776;-73
2022/01/06 05:44:41;;;;;;;;;15.00;15.00;;;;;5.98;61.57;101656.50;4992422;27;45781;-74
2022/01/06 05:47:07;;;;;;;;;14.25;7.00;;;;;6.00;60.64;101657.44;4995412;27;45492;-71
2022/01/06 05:49:33;;;;;;;;;17.75;16.25;;;;;6.12;60.46;101681.28;4991858;27;45456;-70
2022/01/06 05:52:00;;;;;;;;;16.50;14.00;;;;;5.98;61.04;101673.03;4991305;27;46000;-70
2022/01/06 05:54:25;;;;;;;;;17.00;13.25;;;;;5.97;62.65;101672.94;4992130;28;45370;-70
2022/01/06 05:56:51;;;;;;;;;19.00;15.75;;;;;6.01;62.96;101682.63;4986430;27;45322;-71
2022/01/06 05:59:16;;;;;;;;;19.00;17.00;;;;;6.00;61.18;101680.84;4994234;27;45475;-72
2022/01/06 06:01:43;;;;;;;;;15.50;15.25;;;;;5.98;61.81;101673.03;4995637;27;45279;-71
2022/01/06 06:04:09;;;;;;;;;15.75;13.25;;;;;5.98;61.92;101683.41;4995260;27;45507;-70
2022/01/06 06:06:34;;;;;;;;;15.25;14.25;;;;;5.99;60.91;101687.78;4993691;27;45558;-72
2022/01/06 06:09:01;;;;;;;;;17.50;16.00;;;;;5.94;61.96;101681.53;4990881;27;45754;-70
2022/01/06 06:11:27;;;;;;;;;15.50;14.50;;;;;6.04;61.03;101686.22;5057741;28;45543;-74
2022/01/06 06:13:52;;;;;;;;;19.00;14.75;;;;;6.06;62.42;101694.09;4990395;27;45438;-72
2022/01/06 06:16:36;;;;;;;;;15.00;15.00;;;;;5.97;61.79;101696.34;4991139;27;45420;-75
2022/01/06 06:19:03;;;;;;;;;15.25;14.00;;;;;6.05;61.35;101710.50;4975762;28;45422;-74
2022/01/06 06:21:29;;;;;;;;;15.50;12.75;;;;;6.05;61.10;101713.09;4972529;28;46805;-75
2022/01/06 06:23:54;;;;;;;;;17.00;15.50;;;;;5.98;60.78;101700.72;4971309;28;45335;-75
2022/01/06 06:26:20;;;;;;;;;18.00;11.50;;;;;6.03;61.29;101713.06;4971244;28;45610;-71
2022/01/06 06:28:46;;;;;;;;;19.25;14.75;;;;;5.97;61.48;101693.75;4971517;28;45415;-75
2022/01/06 06:31:12;;;;;;;;;16.67;15.00;;;;;6.07;61.17;101714.06;4979080;27;45600;-74
2022/01/06 06:33:38;;;;;;;;;16.25;15.00;;;;;6.01;61.47;101700.84;4989676;27;45294;-69
2022/01/06 06:36:04;;;;;;;;;15.00;14.50;;;;;6.09;60.78;101707.19;4980137;28;45324;-69
2022/01/06 06:38:30;;;;;;;;;18.25;15.25;;;;;5.90;61.36;101693.47;4993870;27;45497;-69
2022/01/06 06:40:55;;;;;;;;;22.00;16.25;;;;;6.09;61.17;101712.41;4993570;27;45464;-70
2022/01/06 06:43:21;;;;;;;;;20.00;16.00;;;;;6.11;61.98;101716.81;4993205;27;45449;-71
2022/01/06 06:45:46;;;;;;;;;18.25;13.00;;;;;6.17;61.38;101731.78;4993614;27;45499;-70
2022/01/06 06:48:13;;;;;;;;;17.25;13.75;;;;;6.01;61.80;101703.44;4994206;27;45467;-71
2022/01/06 06:50:38;;;;;;;;;20.50;18.25;;;;;6.18;62.41;101736.13;4993136;27;45929;-72
2022/01/06 06:53:04;;;;;;;;;23.00;14.75;;;;;6.11;61.90;101722.03;4992765;27;45675;-70
2022/01/06 06:55:31;;;;;;;;;18.00;13.25;;;;;6.25;61.54;101722.50;4976276;28;45470;-72
2022/01/06 06:57:57;;;;;;;;;21.75;15.00;;;;;6.28;60.84;101719.13;4980066;28;45503;-71
2022/01/06 07:00:23;;;;;;;;;20.75;17.75;;;;;6.34;60.42;101733.25;4979475;27;46985;-71
2022/01/06 07:02:48;;;;;;;;;13.25;13.00;;;;;6.39;60.61;101735.13;4995094;27;45272;-73
2022/01/06 07:05:15;;;;;;;;;13.50;11.75;;;;;6.41;60.19;101736.97;4976128;28;45528;-71
2022/01/06 07:07:44;;;;;;;;;19.25;17.25;;;;;6.34;60.15;101721.97;4993472;27;45672;-70
2022/01/06 07:10:10;;;;;;;;;18.00;13.00;;;;;6.16;61.18;101685.78;4992212;27;47240;-72
2022/01/06 07:12:44;;;;;;;;;22.75;16.25;;;;;6.47;60.51;101736.28;4990993;27;45374;-70
2022/01/06 07:15:13;;;;;;;;;16.25;14.00;;;;;6.30;60.63;101700.13;4977802;28;45442;-70
2022/01/06 07:17:39;;;;;;;;;15.50;12.00;;;;;6.51;60.34;101735.56;4977817;28;45576;-74
2022/01/06 07:20:05;;;;;;;;;17.00;13.75;;;;;6.50;59.82;101749.38;4976991;28;46412;-69
2022/01/06 07:22:31;;;;;;;;;20.75;18.75;;;;;6.45;61.52;101741.41;4973041;28;45652;-70
2022/01/06 07:24:56;;;;;;;;;15.25;14.75;;;;;6.44;59.81;101730.97;4972846;28;45672;-70
2022/01/06 07:27:22;;;;;;;;;18.50;14.75;;;;;6.27;59.89;101710.44;4971613;28;45423;-69
2022/01/06 07:29:48;;;;;;;;;21.75;17.00;;;;;6.43;60.45;101732.69;4973215;28;45560;-71
2022/01/06 07:32:14;;;;;;;;;21.75;17.25;;;;;6.51;59.90;101736.44;4972923;28;45719;-71
2022/01/06 07:34:39;;;;;;;;;21.00;17.75;;;;;6.50;59.69;101738.97;4975337;28;45412;-71
2022/01/06 07:37:05;;;;;;;;;23.75;17.25;;;;;6.56;60.49;101747.00;4976724;28;45312;-70
2022/01/06 07:39:31;;;;;;;;;19.50;16.25;;;;;6.51;59.72;101748.56;4972952;28;45439;-72
2022/01/06 07:42:02;;;;;;;;;22.25;18.50;;;;;6.54;60.58;101753.88;4972480;28;45947;-69
2022/01/06 07:44:28;;;;;;;;;20.00;19.75;;;;;6.57;60.51;101749.69;4972278;28;45622;-70
2022/01/06 07:46:54;;;;;;;;;22.00;17.50;;;;;6.48;60.70;101736.34;4976986;28;45421;-71
2022/01/06 07:49:20;;;;;;;;;16.25;15.50;;;;;6.66;61.46;101756.91;4976989;28;45852;-72
2022/01/06 07:51:45;;;;;;;;;19.00;17.75;;;;;6.68;60.48;101759.56;4977227;28;45452;-74
2022/01/06 07:54:11;;;;;;;;;20.00;17.00;;;;;6.59;60.61;101754.91;4975719;28;45489;-72
2022/01/06 07:56:36;;;;;;;;;17.25;15.75;;;;;6.67;60.29;101769.09;4972860;28;45303;-73
2022/01/06 07:59:02;;;;;;;;;25.50;16.25;;;;;6.73;59.55;101771.91;4974997;28;45498;-71
2022/01/06 08:01:28;;;;;;;;;18.25;15.00;;;;;6.75;59.55;101771.97;4977122;28;45323;-70
2022/01/06 08:03:53;;;;;;;;;23.50;18.75;;;;;6.71;59.84;101770.06;4972276;28;45618;-70
2022/01/06 08:06:19;;;;;;;;;28.75;24.25;;;;;6.66;62.54;101750.81;4972837;28;45361;-69
2022/01/06 08:08:54;;;;;;;;;27.00;20.75;;;;;6.73;60.65;101756.28;4972846;28;45754;-72
2022/01/06 08:11:19;;;;;;;;;23.25;19.75;;;;;6.77;60.04;101752.94;4971803;28;45303;-70
2022/01/06 08:13:45;;;;;;;;;20.75;18.25;;;;;6.82;59.67;101763.53;4972640;28;45252;-70
2022/01/06 08:16:11;;;;;;;;;24.00;22.50;;;;;6.79;59.33;101756.50;4972891;28;45415;-70
2022/01/06 08:18:36;;;;;;;;;21.75;17.00;;;;;6.66;59.94;101764.72;4972899;28;45385;-71
2022/01/06 08:21:03;;;;;;;;;20.00;17.25;;;;;6.60;60.51;101756.69;4972473;28;45442;-71
2022/01/06 08:23:28;;;;;;;;;30.75;21.75;;;;;6.64;60.30;101755.94;4973005;28;45570;-72
2022/01/06 08:26:01;;;;;;;;;27.25;17.75;;;;;6.71;60.17;101773.56;4972627;28;45444;-73
2022/01/06 08:28:27;;;;;;;;;24.50;21.75;;;;;6.77;59.96;101768.56;4972942;28;45378;-72
2022/01/06 08:31:48;;;;;;;;;26.00;22.75;;;;;6.83;59.91;101767.00;4972943;28;45382;-75
2022/01/06 08:34:13;;;;;;;;;27.00;21.75;;;;;6.84;59.96;101780.09;4972863;28;45507;-71
2022/01/06 08:36:39;;;;;;;;;25.50;21.00;;;;;6.72;59.61;101771.88;4973050;28;45476;-69
2022/01/06 08:39:04;;;;;;;;;28.25;21.00;;;;;6.76;59.84;101779.84;4972707;28;45965;-72
2022/01/06 08:41:46;;;;;;;;;24.50;22.75;;;;;6.67;59.20;101770.78;4976565;28;45171;-73
2022/01/06 08:44:21;;;;;;;;;29.75;25.25;;;;;6.70;59.63;101776.13;4971086;28;45476;-72
2022/01/06 08:46:48;;;;;;;;;27.50;23.00;;;;;6.75;59.44;101778.03;4973310;28;45425;-84
2022/01/06 08:49:15;;;;;;;;;19.25;18.75;;;;;6.58;60.12;101767.06;4971985;28;45506;-65
2022/01/06 08:51:41;;;;;;;;;25.00;25.00;;;;;6.67;60.58;101784.72;4970655;28;45722;-68
2022/01/06 08:54:07;;;;;;;;;25.00;23.00;;;;;6.57;60.89;101773.09;4976416;28;45265;-69
2022/01/06 08:56:36;;;;;;;;;33.50;27.00;;;;;6.72;60.65;101792.69;4976783;28;45413;-69
2022/01/06 08:59:03;;;;;;;;;29.00;25.00;;;;;6.82;60.31;101793.88;4974432;28;45922;-66
2022/01/06 09:01:28;;;;;;;;;24.50;24.00;;;;;6.93;60.10;101800.34;4972538;28;45845;-74
2022/01/06 09:03:54;;;;;;;;;23.50;20.75;;;;;7.00;60.32;101787.59;4971916;28;45563;-68
2022/01/06 09:06:20;;;;;;;;;29.00;20.50;;;;;7.13;59.95;101794.06;4973047;27;45745;-72
2022/01/06 09:08:46;;;;;;;;;20.00;17.75;;;;;7.06;59.32;101781.69;4970291;28;46001;-69
2022/01/06 09:11:12;;;;;;;;;24.75;21.25;;;;;7.10;59.00;101790.50;4971244;28;45520;-71
2022/01/06 09:13:37;;;;;;;;;26.25;22.00;;;;;7.09;58.68;101775.69;4971681;28;45441;-72
2022/01/06 09:16:03;;;;;;;;;25.00;24.00;;;;;7.27;58.70;101785.84;4971853;28;45613;-68
2022/01/06 09:18:29;;;;;;;;;24.00;21.00;;;;;7.47;59.12;101796.88;4972386;28;45866;-70
2022/01/06 09:20:55;;;;;;;;;21.50;20.50;;;;;7.55;58.47;101803.25;4970714;27;45545;-70
2022/01/06 09:23:21;;;;;;;;;22.50;18.75;;;;;7.60;58.00;101792.09;4975823;28;45353;-73
2022/01/06 09:25:46;;;;;;;;;23.75;21.25;;;;;7.73;57.76;101802.91;4974512;28;45503;-74
2022/01/06 09:28:12;;;;;;;;;24.50;18.50;;;;;7.80;57.29;101797.03;4973369;28;45483;-65
2022/01/06 09:30:38;;;;;;;;;22.50;17.25;;;;;7.77;57.54;101789.13;4973670;28;45475;-63
2022/01/06 09:33:06;;;;;;;;;25.75;21.75;;;;;7.84;57.76;101791.97;4972185;28;46038;-64
2022/01/06 09:35:32;;;;;;;;;22.75;19.75;;;;;7.95;56.36;101783.56;4976036;28;45341;-66
2022/01/06 09:37:57;;;;;;;;;17.25;16.50;;;;;8.08;59.53;101785.69;4972177;28;45651;-65
2022/01/06 09:40:23;;;;;;;;;18.50;17.00;;;;;8.33;58.42;101802.97;4972583;28;45406;-67
2022/01/06 09:42:49;;;;;;;;;22.25;16.00;;;;;8.42;57.73;101807.56;4973378;28;45383;-66
2022/01/06 09:45:16;;;;;;;;;19.75;14.75;;;;;8.44;56.77;101806.75;4973419;28;45434;-66
2022/01/06 09:47:42;;;;;;;;;17.75;17.25;;;;;8.44;57.04;101806.75;4976572;28;45550;-65
2022/01/06 09:50:12;;;;;;;;;13.50;13.50;;;;;8.44;56.91;101812.00;4972752;28;45728;-64
2022/01/06 09:52:45;;;;;;;;;19.25;17.75;;;;;8.34;55.68;101790.78;4971547;28;45549;-64
2022/01/06 09:55:11;;;;;;;;;17.00;17.00;;;;;8.53;55.91;101818.31;4970479;28;45705;-65
2022/01/06 09:57:37;;;;;;;;;23.00;20.25;;;;;8.51;55.40;101815.66;4971170;28;45398;-65
2022/01/06 10:00:11;;;;;;;;;22.50;18.75;;;;;8.52;56.25;101824.38;4970799;28;45662;-65
2022/01/06 10:02:38;;;;;;;;;24.25;21.50;;;;;8.48;55.20;101810.38;4971055;28;45536;-64
2022/01/06 10:05:05;;;;;;;;;26.00;21.50;;;;;8.48;54.83;101819.06;4974209;28;45452;-66
2022/01/06 10:07:39;;;;;;;;;21.75;19.00;;;;;8.34;56.44;101827.34;4974208;28;45423;-65
2022/01/06 10:10:09;;;;;;;;;31.00;23.75;;;;;8.36;55.92;101828.25;4976579;28;45403;-65
2022/01/06 10:12:36;;;;;;;;;25.75;21.00;;;;;8.36;55.80;101833.50;4975288;28;45588;-65
2022/01/06 10:15:02;;;;;;;;;27.25;24.00;;;;;8.31;55.93;101817.69;4975021;28;45271;-65
2022/01/06 10:17:36;;;;;;;;;24.50;21.50;;;;;8.42;55.72;101823.22;4972895;28;46991;-66
2022/01/06 10:20:13;;;;;;;;;21.75;18.25;;;;;8.12;55.70;101774.53;4975826;28;45402;-68
2022/01/06 10:22:58;;;;;;;;;22.75;19.00;;;;;8.42;54.87;101821.53;4974413;28;45464;-66
2022/01/06 10:25:31;;;;;;;;;24.75;22.50;;;;;8.29;54.65;101803.72;4975445;27;45444;-65
2022/01/06 10:27:57;;;;;;;;;22.75;19.50;;;;;8.45;55.99;101808.56;4968223;27;47712;-65
2022/01/06 10:30:28;;;;;;;;;26.25;22.50;;;;;8.62;55.02;101808.13;4996466;27;45717;-66
2022/01/06 10:33:04;;;;;;;;;23.50;20.25;;;;;8.69;54.38;101817.91;4975995;27;45458;-66
2022/01/06 10:35:30;;;;;;;;;25.00;20.50;;;;;8.70;54.23;101814.44;4993957;27;45772;-68
2022/01/06 10:37:59;;;;;;;;;18.00;16.00;;;;;8.63;54.36;101797.72;4994376;27;45436;-66
2022/01/06 10:40:26;;;;;;;;;19.75;17.50;;;;;8.70;54.35;101812.69;4992276;27;45418;-66
2022/01/06 10:42:55;;;;;;;;;16.50;15.00;;;;;8.88;54.08;101825.38;4993502;28;45388;-66
2022/01/06 10:45:26;;;;;;;;;14.25;13.00;;;;;8.87;53.03;101814.88;4993577;27;45322;-65
2022/01/06 10:47:54;;;;;;;;;18.25;11.75;;;;;9.82;52.35;101826.78;4993546;27;46501;-67
2022/01/06 10:50:27;;;;;;;;;15.75;15.00;;;;;10.57;49.66;101800.44;4993498;27;45268;-67
2022/01/06 10:52:55;;;;;;;;;14.75;13.50;;;;;10.89;49.16;101810.66;4993820;27;45524;-66
2022/01/06 10:55:28;;;;;;;;;14.00;12.00;;;;;12.05;46.11;101798.50;4993556;28;45282;-67
2022/01/06 10:58:00;;;;;;;;;15.50;12.50;;;;;12.09;45.98;101797.63;4993523;27;45618;-67
2022/01/06 11:00:31;;;;;;;;;13.75;11.25;;;;;11.42;46.35;101779.19;4976010;28;45626;-66
2022/01/06 11:03:14;;;;;;;;;15.50;13.50;;;;;11.10;47.84;101797.00;4978478;28;45446;-67
2022/01/06 11:05:42;;;;;;;;;9.00;9.00;;;;;10.95;48.92;101795.03;4993870;27;45420;-67
2022/01/06 11:08:09;;;;;;;;;17.25;13.00;;;;;10.55;49.28;101723.56;4993239;28;46077;-68
2022/01/06 11:10:37;;;;;;;;;10.00;9.25;;;;;10.93;48.42;101791.50;4993272;27;45346;-70
2022/01/06 11:13:05;;;;;;;;;9.00;9.00;;;;;11.46;49.08;101794.13;4993749;27;45437;-69
2022/01/06 11:15:31;;;;;;;;;8.50;7.00;;;;;12.50;46.81;101759.56;4973848;28;45371;-68
2022/01/06 11:18:00;;;;;;;;;14.00;11.00;;;;;12.50;46.09;101741.19;4955790;28;45540;-67
2022/01/06 11:20:27;;;;;;;;;11.50;9.00;;;;;12.79;46.17;101766.88;4990096;27;45451;-69
2022/01/06 11:22:55;;;;;;;;;8.50;8.50;;;;;12.81;44.68;101752.00;4975255;28;45374;-67
2022/01/06 11:25:31;;;;;;;;;10.25;7.50;;;;;12.67;45.37;101765.91;4993055;27;45488;-67